Time;durP1;ratioP1;P1;durP2;ratioP2;P2;SDS_P1;SDS_P2;PMS_P1;PMS_P2;Temp;Humidity;BMP_temperature;BMP_pressure;BME280_temperature;BME280_humidity;BME280_pressure;Samples;Min_cycle;Max_cycle;Signal;HPM_P1;HPM_P2
2021/07/22 00:01:53;;;;;;;2.10;2.00;;;22.30;99.90;;;22.66;64.66;102242.31;4938776;29;20043;-69
2021/07/22 00:04:24;;;;;;;1.73;1.73;;;22.30;99.90;;;22.64;65.07;102244.19;4938808;29;20091;-69
2021/07/22 00:06:52;;;;;;;1.83;1.80;;;22.20;99.90;;;22.61;64.74;102241.56;4938377;29;20094;-69
2021/07/22 00:09:20;;;;;;;1.85;1.83;;;22.20;99.90;;;22.62;64.88;102245.16;4938401;29;20051;-69
2021/07/22 00:11:49;;;;;;;1.80;1.80;;;22.20;99.90;;;22.68;64.85;102240.47;4921502;29;20048;-69
2021/07/22 00:14:17;;;;;;;2.05;1.95;;;22.20;99.90;;;22.69;65.13;102244.03;4938029;29;20111;-69
2021/07/22 00:16:46;;;;;;;1.73;1.73;;;22.20;99.90;;;22.64;65.45;102237.91;4938184;29;20130;-69
2021/07/22 00:19:14;;;;;;;1.85;1.80;;;22.20;99.90;;;22.67;65.07;102230.59;4920734;29;20142;-69
2021/07/22 00:21:44;;;;;;;1.77;1.77;;;22.30;99.90;;;22.72;65.46;102239.44;4938410;29;20059;-69
2021/07/22 00:24:13;;;;;;;2.05;1.95;;;22.30;99.90;;;22.67;65.33;102235.09;4938264;29;20486;-69
2021/07/22 00:26:41;;;;;;;2.20;2.10;;;22.30;99.90;;;22.62;64.96;102228.97;4937714;29;20508;-69
2021/07/22 00:29:10;;;;;;;2.30;2.20;;;22.20;99.90;;;22.64;65.24;102241.50;4937333;29;20047;-69
2021/07/22 00:31:38;;;;;;;2.10;2.00;;;22.20;99.90;;;22.56;65.87;102234.53;4938045;29;20102;-69
2021/07/22 00:34:10;;;;;;;3.63;3.40;;;22.10;99.90;;;22.52;66.04;102212.19;4937984;29;20039;-69
2021/07/22 00:36:38;;;;;;;2.35;2.25;;;22.20;99.90;;;22.59;66.27;102231.78;4937898;29;20095;-69
2021/07/22 00:39:08;;;;;;;1.67;1.67;;;22.20;99.90;;;22.53;66.79;102231.94;4937921;29;20177;-69
2021/07/22 00:41:39;;;;;;;2.20;2.10;;;22.10;99.90;;;22.50;66.81;102232.91;4937830;29;20051;-69
2021/07/22 00:44:11;;;;;;;1.95;1.85;;;22.10;99.90;;;22.51;66.93;102226.59;4920813;29;20056;-69
2021/07/22 00:46:40;;;;;;;1.92;1.85;;;22.10;99.90;;;22.45;67.01;102224.09;4920517;29;20048;-69
2021/07/22 00:49:11;;;;;;;2.00;1.90;;;22.10;99.90;;;22.57;67.36;102220.16;4920292;29;20051;-69
2021/07/22 00:51:40;;;;;;;2.00;1.90;;;22.10;99.90;;;22.52;67.08;102224.78;4920808;29;20051;-70
2021/07/22 00:54:12;;;;;;;1.77;1.75;;;22.10;99.90;;;22.47;66.83;102222.25;4920856;29;20058;-69
2021/07/22 00:56:42;;;;;;;1.90;1.88;;;22.10;99.90;;;22.48;66.66;102225.78;4920547;29;20417;-69
2021/07/22 00:59:12;;;;;;;2.85;2.75;;;22.10;99.90;;;22.43;66.68;102234.91;4937582;29;20135;-69
2021/07/22 01:01:41;;;;;;;2.05;1.95;;;22.00;99.90;;;22.45;66.80;102224.97;4937469;29;20091;-69
2021/07/22 01:04:11;;;;;;;2.22;2.13;;;22.10;99.90;;;22.45;66.71;102224.97;4920562;29;20051;-69
2021/07/22 01:06:41;;;;;;;2.00;1.90;;;22.00;99.90;;;22.40;66.69;102220.66;4920572;29;20504;-69
2021/07/22 01:09:17;;;;;;;2.10;2.00;;;22.00;99.90;;;22.36;66.54;102217.16;4937414;29;20050;-69
2021/07/22 01:11:53;;;;;;;4.07;3.85;;;22.00;99.90;;;22.38;66.55;102225.22;4920503;29;20056;-69
2021/07/22 01:14:24;;;;;;;1.83;1.83;;;22.00;99.90;;;22.38;66.59;102226.09;4920397;29;20126;-69
2021/07/22 01:16:54;;;;;;;2.70;2.60;;;22.00;99.90;;;22.17;66.49;102191.72;4920155;29;20058;-69
2021/07/22 01:19:23;;;;;;;2.50;2.30;;;21.90;99.90;;;22.32;66.44;102215.50;4937086;29;20048;-69
2021/07/22 01:21:54;;;;;;;2.20;2.10;;;22.00;99.90;;;22.39;66.25;102222.50;4920066;29;20403;-69
2021/07/22 01:24:23;;;;;;;;;;;22.00;99.90;;;22.40;66.32;102228.75;4920210;29;20067;-69
2021/07/22 01:27:12;;;;;;;2.30;2.20;;;22.00;99.90;;;22.40;66.15;102212.56;4935839;29;20365;-69
2021/07/22 01:29:53;;;;;;;2.30;2.20;;;22.00;99.90;;;22.40;66.43;102220.66;4919983;29;20142;-69
2021/07/22 01:32:21;;;;;;;2.53;2.42;;;21.90;99.90;;;22.39;66.63;102218.91;4936823;29;20056;-69
2021/07/22 01:34:51;;;;;;;2.17;2.08;;;22.00;99.90;;;22.29;66.37;102210.22;4919742;29;20126;-69
2021/07/22 01:37:25;;;;;;;2.22;2.13;;;21.90;99.90;;;22.26;66.12;102218.38;4920043;29;20053;-69
2021/07/22 01:39:55;;;;;;;2.10;2.00;;;21.90;99.90;;;22.01;66.24;102176.09;4919660;29;20056;-69
2021/07/22 01:42:23;;;;;;;3.00;2.85;;;21.80;99.90;;;22.21;66.41;102211.38;4919648;29;20063;-70
2021/07/22 01:44:52;;;;;;;2.10;2.00;;;21.80;99.90;;;22.12;66.42;102204.47;4919719;29;20134;-69
2021/07/22 01:47:21;;;;;;;2.08;1.98;;;21.70;99.90;;;22.13;67.01;102211.63;4936406;29;20520;-69
2021/07/22 01:49:49;;;;;;;2.40;2.30;;;21.70;99.90;;;22.10;66.58;102214.41;4919557;29;20047;-69
2021/07/22 01:52:19;;;;;;;2.00;1.90;;;21.70;99.90;;;22.07;66.63;102217.19;4919859;29;20469;-69
2021/07/22 01:54:53;;;;;;;2.10;2.00;;;21.60;99.90;;;22.10;66.79;102208.13;4919724;29;20151;-69
2021/07/22 01:57:23;;;;;;;1.80;1.80;;;21.70;99.90;;;21.87;66.74;102181.91;4919732;29;20052;-69
2021/07/22 01:59:52;;;;;;;2.33;2.22;;;21.70;99.90;;;22.07;66.91;102217.19;4919442;29;20079;-69
2021/07/22 02:02:22;;;;;;;;;;;21.70;99.90;;;22.08;67.07;102223.47;4919821;29;20441;-69
2021/07/22 02:04:53;;;;;;;;;;;21.60;99.90;;;21.85;67.08;102177.47;4919871;29;19978;-69
2021/07/22 02:07:22;;;;;;;2.38;2.28;;;21.70;99.90;;;22.02;66.94;102215.56;4919019;29;19923;-69
2021/07/22 02:10:05;;;;;;;2.00;1.90;;;21.60;99.90;;;21.99;66.84;102216.53;4919388;29;20052;-69
2021/07/22 02:12:33;;;;;;;1.92;1.83;;;21.60;99.90;;;21.99;66.88;102216.53;4919244;29;20059;-69
2021/07/22 02:15:10;;;;;;;2.20;2.10;;;21.60;99.90;;;21.98;66.87;102209.38;4919191;29;20138;-70
2021/07/22 02:17:41;;;;;;;2.35;2.25;;;21.60;99.90;;;21.99;66.66;102210.28;4919157;29;20492;-69
2021/07/22 02:20:11;;;;;;;1.90;1.80;;;21.60;99.90;;;21.90;66.95;102207.84;4936068;29;20045;-69
2021/07/22 02:22:40;;;;;;;2.00;1.90;;;21.50;99.90;;;21.88;67.27;102202.50;4919110;29;20056;-69
2021/07/22 02:25:30;;;;;;;1.90;1.80;;;21.50;99.90;;;21.91;67.38;102210.47;4935779;29;20126;-69
2021/07/22 02:28:01;;;;;;;2.00;1.90;;;21.50;99.90;;;21.89;67.12;102209.63;4919380;29;20059;-69
2021/07/22 02:30:30;;;;;;;1.98;1.88;;;21.50;99.90;;;21.69;67.03;102179.69;4935851;29;20502;-69
2021/07/22 02:32:59;;;;;;;2.15;2.05;;;21.50;99.90;;;21.14;67.43;102088.84;4935730;29;20111;-69
2021/07/22 02:35:28;;;;;;;2.20;2.10;;;21.40;99.90;;;21.83;67.18;102209.84;4919129;29;20087;-69
2021/07/22 02:38:08;;;;;;;2.38;2.28;;;21.40;99.90;;;21.81;67.50;102210.81;4936059;29;20047;-69
2021/07/22 02:40:40;;;;;;;2.38;2.28;;;21.40;99.90;;;21.62;67.46;102190.69;4919164;29;20047;-69
2021/07/22 02:43:09;;;;;;;2.35;2.25;;;21.40;99.90;;;21.72;67.64;102217.31;4919234;29;20079;-69
2021/07/22 02:45:38;;;;;;;2.33;2.22;;;21.30;99.90;;;21.75;67.81;102217.25;4935740;29;20035;-69
2021/07/22 02:48:09;;;;;;;2.55;2.45;;;21.30;99.90;;;21.73;68.08;102213.72;4918551;29;20548;-70
2021/07/22 02:50:39;;;;;;;2.30;2.20;;;21.30;99.90;;;21.66;67.64;102198.63;4919535;29;20094;-69
2021/07/22 02:53:09;;;;;;;2.30;2.20;;;21.30;99.90;;;21.75;68.09;102216.34;4922742;29;20148;-69
2021/07/22 02:56:08;;;;;;;2.50;2.40;;;21.30;99.90;;;21.76;68.05;102213.59;4930490;29;20059;-69
2021/07/22 02:58:38;;;;;;;2.08;1.98;;;21.30;99.90;;;21.77;68.36;102217.19;4922550;29;20048;-69
2021/07/22 03:01:12;;;;;;;6.32;5.95;;;21.30;99.90;;;21.74;68.42;102212.75;4922560;29;20048;-69
2021/07/22 03:03:42;;;;;;;2.08;1.98;;;21.30;99.90;;;21.73;68.36;102213.72;4922283;29;20103;-69
2021/07/22 03:06:17;;;;;;;3.20;3.00;;;21.30;99.90;;;21.54;68.45;102186.41;4922566;29;20043;-70
2021/07/22 03:08:58;;;;;;;2.22;2.13;;;21.30;99.90;;;21.61;68.75;102199.69;4922482;29;20564;-69
2021/07/22 03:11:28;;;;;;;2.40;2.30;;;21.30;99.90;;;21.71;68.86;102225.44;4922433;29;20142;-69
2021/07/22 03:14:01;;;;;;;2.50;2.40;;;21.30;99.90;;;21.71;68.79;102222.75;4922365;29;20454;-69
2021/07/22 03:16:31;;;;;;;2.72;2.63;;;21.30;99.90;;;21.65;69.46;102226.50;4922211;29;20407;-69
2021/07/22 03:19:23;;;;;;;2.40;2.30;;;21.30;99.90;;;21.69;69.43;102222.81;4938723;29;20055;-69
2021/07/22 03:22:04;;;;;;;2.40;2.30;;;21.30;99.90;;;21.73;69.50;102221.78;4922062;29;20138;-69
2021/07/22 03:24:55;;;;;;;2.38;2.28;;;21.30;99.90;;;21.66;69.63;102212.09;4931290;29;20051;-69
2021/07/22 03:27:42;;;;;;;2.72;2.63;;;21.20;99.90;;;21.61;69.61;102200.56;4922090;29;20096;-69
2021/07/22 03:30:19;;;;;;;2.35;2.25;;;21.30;99.90;;;21.65;69.72;102210.34;4921965;29;20059;-69
2021/07/22 03:33:08;;;;;;;2.35;2.25;;;21.30;99.90;;;21.67;69.73;102218.38;4938771;29;20047;-69
2021/07/22 03:35:42;;;;;;;2.10;2.00;;;21.30;99.90;;;21.63;69.73;102211.31;4922071;29;20047;-69
2021/07/22 03:38:13;;;;;;;2.28;2.17;;;21.30;99.90;;;21.65;69.86;102221.13;4922230;29;20078;-69
2021/07/22 03:41:02;;;;;;;2.00;1.90;;;21.30;99.90;;;21.67;70.21;102213.88;4938524;29;20138;-69
2021/07/22 03:43:32;;;;;;;2.25;2.15;;;21.30;99.90;;;21.67;69.57;102224.66;4922084;29;20084;-69
2021/07/22 03:46:04;;;;;;;2.00;1.90;;;21.20;99.90;;;21.58;69.66;102213.25;4922155;29;20066;-69
2021/07/22 03:48:33;;;;;;;2.03;1.92;;;21.20;99.90;;;21.67;69.80;102213.88;4938862;29;20036;-69
2021/07/22 03:51:01;;;;;;;2.17;2.08;;;21.20;99.90;;;21.62;69.72;102215.84;4938798;29;20048;-69
2021/07/22 03:53:32;;;;;;;2.38;2.28;;;21.20;99.90;;;21.50;69.28;102195.47;4921879;29;20054;-69
2021/07/22 03:56:01;;;;;;;2.22;2.13;;;21.20;99.90;;;21.51;69.37;102234.09;4938984;29;20131;-69
2021/07/22 03:58:42;;;;;;;2.05;1.95;;;21.20;99.90;;;21.57;69.50;102228.53;4938748;29;20508;-69
2021/07/22 04:01:31;;;;;;;2.20;2.10;;;21.20;99.90;;;21.55;69.61;102225.88;4938065;29;20052;-69
2021/07/22 04:04:04;;;;;;;2.22;2.13;;;21.10;99.90;;;21.51;69.52;102213.44;4921248;29;20051;-69
2021/07/22 04:06:35;;;;;;;2.25;2.15;;;21.10;99.90;;;21.48;69.73;102213.53;4921526;29;20056;-69
2021/07/22 04:09:05;;;;;;;2.10;2.00;;;21.10;99.90;;;21.53;69.61;102221.44;4938544;29;20055;-69
2021/07/22 04:11:58;;;;;;;2.15;2.05;;;21.10;99.90;;;21.52;69.98;102208.94;4921533;29;20067;-69
2021/07/22 04:14:44;;;;;;;2.03;1.92;;;21.20;99.90;;;21.54;70.22;102225.94;4921370;29;20075;-69
2021/07/22 04:17:19;;;;;;;2.22;2.13;;;21.20;99.90;;;21.48;69.88;102212.63;4921376;29;20055;-69
2021/07/22 04:20:25;;;;;;;2.10;2.00;;;21.10;99.90;;;21.51;70.01;102228.69;4920197;29;20051;-69
2021/07/22 04:23:13;;;;;;;2.25;2.15;;;21.10;99.90;;;21.55;69.65;102216.91;4921177;29;20062;-69
2021/07/22 04:26:06;;;;;;;2.63;2.53;;;21.10;99.90;;;21.43;70.07;102219.94;4910594;29;20047;-70
2021/07/22 04:29:13;;;;;;;2.15;2.05;;;21.10;99.90;;;21.43;69.98;102223.53;4928739;29;20067;-69
2021/07/22 04:31:44;;;;;;;2.45;2.35;;;21.00;99.90;;;21.44;70.18;102227.09;4920987;29;20056;-67
2021/07/22 04:34:31;;;;;;;2.20;2.10;;;21.10;99.90;;;21.46;70.21;102230.63;4938274;29;20529;-68
2021/07/22 04:37:09;;;;;;;2.08;1.98;;;21.00;99.90;;;21.50;69.98;102227.81;4920812;29;20048;-70
2021/07/22 04:39:56;;;;;;;1.98;1.88;;;21.10;99.90;;;21.50;70.33;102226.94;4937807;29;20573;-70
2021/07/22 04:42:38;;;;;;;2.05;1.95;;;21.00;99.90;;;21.56;70.59;102233.03;4920202;29;20082;-70
2021/07/22 04:45:22;;;;;;;3.92;3.72;;;21.10;99.90;;;21.55;70.36;102235.75;4937418;29;20047;-70
2021/07/22 04:48:30;;;;;;;2.08;1.98;;;21.10;99.90;;;21.64;70.18;102226.56;4896680;29;20056;-70
2021/07/22 04:51:18;;;;;;;2.40;2.30;;;21.20;99.90;;;21.62;69.81;102236.50;4896862;29;20468;-70
2021/07/22 04:53:56;;;;;;;6.88;3.22;;;21.20;99.90;;;21.65;69.41;102225.59;4923760;29;20524;-70
2021/07/22 04:56:25;;;;;;;2.00;1.90;;;21.30;99.90;;;21.67;69.36;102234.53;4936827;29;20043;-70
2021/07/22 04:58:53;;;;;;;2.10;2.00;;;21.20;99.90;;;21.68;69.58;102228.25;4936689;29;20044;-70
2021/07/22 05:01:26;;;;;;;2.00;1.90;;;21.30;99.90;;;21.71;69.30;102233.53;4919476;29;20044;-70
2021/07/22 05:03:56;;;;;;;2.17;2.08;;;21.30;99.90;;;21.73;68.89;102239.75;4919381;29;20059;-70
2021/07/22 05:06:37;;;;;;;2.00;1.90;;;21.30;99.90;;;21.68;68.59;102210.25;4919382;29;20090;-70
2021/07/22 05:09:10;;;;;;;2.20;2.10;;;21.40;99.90;;;21.75;68.34;102238.78;4936475;29;20063;-70
2021/07/22 05:12:09;;;;;;;2.17;2.08;;;21.40;99.90;;;21.81;68.18;102233.25;4922834;29;20052;-70
2021/07/22 05:15:00;;;;;;;2.13;2.03;;;21.40;99.90;;;21.28;67.94;102139.59;4922162;29;20073;-70
2021/07/22 05:17:49;;;;;;;1.80;1.77;;;21.50;99.90;;;21.91;67.92;102232.03;4936069;29;20062;-70
2021/07/22 05:20:37;;;;;;;2.50;2.40;;;21.50;99.90;;;21.99;67.72;102238.09;4936365;29;20171;-70
2021/07/22 05:23:15;;;;;;;2.22;2.13;;;21.60;99.90;;;22.03;67.26;102244.28;4919224;29;20498;-70
2021/07/22 05:26:07;;;;;;;2.33;2.22;;;21.60;99.90;;;22.09;66.39;102233.31;4927959;29;20056;-70
2021/07/22 05:28:50;;;;;;;2.10;2.00;;;21.70;99.90;;;22.09;66.39;102244.97;4919077;29;20043;-70
2021/07/22 05:31:39;;;;;;;2.50;2.40;;;21.70;99.90;;;22.20;65.73;102255.47;4919094;29;20499;-70
2021/07/22 05:34:46;;;;;;;2.40;2.28;;;21.80;99.90;;;22.33;65.63;102236.16;4925231;29;20063;-70
2021/07/22 05:37:31;;;;;;;2.40;2.30;;;22.00;99.90;;;22.33;65.07;102233.47;4919015;29;20048;-70
2021/07/22 05:39:59;;;;;;;2.30;2.20;;;22.00;99.90;;;22.44;64.87;102244.78;4936007;29;20078;-70
2021/07/22 05:42:28;;;;;;;1.88;1.80;;;22.10;99.90;;;22.46;64.19;102242.03;4935584;29;20505;-70
2021/07/22 05:44:57;;;;;;;2.22;2.13;;;22.10;99.90;;;22.53;64.00;102240.03;4935849;29;20051;-70
2021/07/22 05:47:25;;;;;;;1.70;1.70;;;22.20;99.90;;;22.59;63.80;102239.88;4935542;29;20079;-70
2021/07/22 05:49:53;;;;;;;2.20;2.10;;;22.30;99.90;;;22.69;63.45;102246.72;4935641;29;20073;-70
2021/07/22 05:52:22;;;;;;;2.20;2.10;;;22.40;99.90;;;22.70;63.66;102249.41;4918508;29;20054;-70
2021/07/22 05:54:51;;;;;;;2.10;2.00;;;22.40;99.90;;;22.80;63.68;102244.56;4935847;29;20269;-70
2021/07/22 05:57:20;;;;;;;3.22;3.05;;;22.50;99.90;;;22.81;62.61;102247.22;4935918;29;20130;-70
2021/07/22 05:59:49;;;;;;;2.10;2.00;;;22.50;99.90;;;22.84;62.85;102238.16;4935629;29;20036;-70
2021/07/22 06:02:17;;;;;;;1.85;1.77;;;22.60;99.90;;;22.92;63.01;102241.44;4935663;29;20099;-70
2021/07/22 06:04:49;;;;;;;2.43;2.33;;;22.60;99.90;;;22.97;62.98;102242.19;4935955;29;20396;-70
2021/07/22 06:07:18;;;;;;;1.98;1.88;;;22.70;99.90;;;23.07;62.81;102243.66;4935786;29;20055;-70
2021/07/22 06:09:46;;;;;;;2.30;2.20;;;22.80;99.90;;;23.05;61.98;102237.41;4935171;29;20043;-70
2021/07/22 06:12:16;;;;;;;2.10;2.00;;;22.80;99.90;;;23.13;61.98;102235.34;4933761;29;20066;-70
2021/07/22 06:14:45;;;;;;;2.25;2.15;;;22.90;99.90;;;23.16;62.37;102237.94;4918213;29;20054;-70
2021/07/22 06:17:13;;;;;;;2.42;2.33;;;22.90;99.90;;;23.27;62.25;102244.72;4934899;29;20050;-70
2021/07/22 06:19:42;;;;;;;1.98;1.88;;;23.00;99.90;;;23.28;61.22;102237.50;4935048;29;20475;-70
2021/07/22 06:22:10;;;;;;;2.00;1.90;;;23.10;99.90;;;22.97;61.33;102180.09;4935898;29;20103;-70
2021/07/22 06:24:39;;;;;;;2.22;2.13;;;23.10;99.90;;;23.47;61.01;102248.56;4935754;29;20422;-70
2021/07/22 06:27:12;;;;;;;1.98;1.90;;;23.20;99.90;;;23.48;60.98;102236.84;4935452;29;20525;-70
2021/07/22 06:29:42;;;;;;;2.00;1.90;;;23.20;99.90;;;23.55;60.26;102252.78;4936149;29;20391;-70
2021/07/22 06:32:10;;;;;;;2.97;2.70;;;23.30;99.90;;;23.61;60.00;102252.56;4935731;29;20526;-70
2021/07/22 06:34:39;;;;;;;1.80;1.80;;;23.30;99.90;;;23.67;60.10;102256.84;4935699;29;20052;-70
2021/07/22 06:37:08;;;;;;;2.20;2.10;;;23.40;99.90;;;23.70;59.66;102245.91;4935898;29;20048;-70
2021/07/22 06:39:45;;;;;;;2.28;2.17;;;23.50;99.90;;;23.64;59.02;102263.22;4918804;29;20107;-64
2021/07/22 06:42:13;;;;;;;2.17;2.08;;;23.40;99.90;;;23.72;59.53;102262.94;4935841;29;20047;-64
2021/07/22 06:44:44;;;;;;;2.42;2.33;;;23.50;99.90;;;23.82;59.21;102257.16;4935962;29;20069;-65
2021/07/22 06:47:12;;;;;;;2.10;2.00;;;23.60;99.90;;;23.91;58.99;102259.53;4935899;29;20056;-66
2021/07/22 06:49:40;;;;;;;2.08;1.98;;;23.60;99.90;;;23.98;58.99;102263.75;4935536;29;20067;-67
2021/07/22 06:52:11;;;;;;;2.08;1.98;;;23.70;99.90;;;24.04;58.37;102263.56;4936173;29;20043;-66
2021/07/22 06:54:40;;;;;;;2.00;1.90;;;23.70;99.90;;;24.06;58.33;102261.66;4935878;29;20051;-66
2021/07/22 06:57:09;;;;;;;2.17;2.08;;;23.80;99.90;;;24.18;58.46;102258.50;4936088;29;20067;-66
2021/07/22 06:59:37;;;;;;;2.22;2.13;;;23.90;99.90;;;24.14;58.33;102237.94;4935838;29;20095;-66
2021/07/22 07:02:09;;;;;;;2.00;1.90;;;24.00;99.90;;;24.23;57.79;102243.94;4935844;29;20052;-66
2021/07/22 07:04:38;;;;;;;2.03;1.92;;;24.10;99.90;;;24.34;57.45;102271.44;4935385;29;20087;-66
2021/07/22 07:07:06;;;;;;;1.98;1.90;;;24.10;99.90;;;24.33;56.97;102258.88;4935714;29;20048;-67
2021/07/22 07:09:34;;;;;;;2.30;2.20;;;24.10;99.90;;;24.16;57.07;102264.91;4935708;29;20091;-67
2021/07/22 07:12:04;;;;;;;2.55;2.45;;;24.00;99.90;;;24.17;57.00;102267.56;4935646;29;20051;-67
2021/07/22 07:14:33;;;;;;;1.80;1.80;;;23.90;99.90;;;24.23;56.99;102273.69;4935361;29;20482;-65
2021/07/22 07:17:01;;;;;;;2.15;2.05;;;24.00;99.90;;;24.27;56.91;102269.91;4935397;29;20039;-64
2021/07/22 07:19:31;;;;;;;1.75;1.75;;;24.00;99.90;;;24.13;57.24;102265.03;4935151;29;20457;-64
2021/07/22 07:22:02;;;;;;;1.65;1.65;;;23.90;99.90;;;24.14;57.69;102267.69;4935507;29;20143;-64
2021/07/22 07:24:31;;;;;;;2.13;2.03;;;23.90;99.90;;;24.21;57.62;102270.16;4935303;29;20047;-62
2021/07/22 07:27:00;;;;;;;2.03;1.92;;;23.90;99.90;;;24.27;57.40;102268.09;4935628;29;20095;-63
2021/07/22 07:29:28;;;;;;;1.75;1.75;;;24.00;99.90;;;24.28;57.34;102271.66;4935544;29;20095;-63
2021/07/22 07:32:00;;;;;;;2.13;2.03;;;24.00;99.90;;;24.29;57.22;102281.56;4935670;29;20044;-62
2021/07/22 07:34:28;;;;;;;1.98;1.90;;;24.00;99.90;;;24.35;57.18;102273.22;4935226;29;20099;-63
2021/07/22 07:36:58;;;;;;;2.00;1.90;;;24.00;99.90;;;24.38;57.27;102263.16;4936193;29;20087;-65
2021/07/22 07:39:27;;;;;;;1.90;1.80;;;24.10;99.90;;;24.50;57.47;102264.47;4938591;29;20044;-63
2021/07/22 07:41:55;;;;;;;1.77;1.77;;;24.20;99.90;;;24.57;56.41;102269.59;4938552;29;20051;-62
2021/07/22 07:44:23;;;;;;;1.83;1.83;;;24.30;99.90;;;24.62;56.55;102269.41;4938577;29;20060;-65
2021/07/22 07:46:52;;;;;;;1.70;1.70;;;24.30;99.90;;;24.71;56.55;102277.16;4938544;29;20048;-65
2021/07/22 07:49:21;;;;;;;2.13;2.03;;;24.40;99.90;;;24.76;56.63;102280.56;4921663;29;20564;-64
2021/07/22 07:51:49;;;;;;;2.05;1.95;;;24.50;99.90;;;24.67;55.44;102275.50;4938393;29;20522;-65
2021/07/22 07:54:22;;;;;;;1.70;1.70;;;24.50;99.90;;;24.57;56.05;102253.34;4938694;29;20052;-64
2021/07/22 07:56:51;;;;;;;1.80;1.80;;;24.50;99.90;;;24.88;56.29;102282.78;4938540;29;20052;-64
2021/07/22 07:59:19;;;;;;;2.08;1.98;;;24.60;99.90;;;24.89;55.84;102265.63;4938250;29;20557;-65
2021/07/22 08:01:49;;;;;;;2.40;2.30;;;24.70;99.90;;;24.65;56.01;102218.75;4938039;29;20075;-65
2021/07/22 08:04:18;;;;;;;2.00;1.92;;;24.80;99.90;;;25.05;55.04;102286.56;4938232;29;20044;-64
2021/07/22 08:06:46;;;;;;;2.17;2.08;;;24.80;99.90;;;25.11;55.08;102287.22;4938499;29;20047;-63
2021/07/22 08:09:14;;;;;;;1.70;1.70;;;24.80;99.90;;;25.24;55.10;102283.09;4938212;29;20048;-64
2021/07/22 08:11:44;;;;;;;3.13;3.03;;;25.00;99.90;;;25.32;55.11;102276.38;4938048;29;20047;-64
2021/07/22 08:14:15;;;;;;;1.80;1.80;;;25.10;99.90;;;25.33;54.87;102283.56;4938123;29;20059;-63
2021/07/22 08:16:45;;;;;;;1.50;1.50;;;25.10;99.90;;;25.34;54.18;102284.47;4937871;29;20405;-63
2021/07/22 08:19:13;;;;;;;1.70;1.70;;;25.10;99.90;;;25.34;54.18;102284.47;4937991;29;20172;-63
2021/07/22 08:21:42;;;;;;;1.60;1.60;;;25.10;99.90;;;25.00;53.35;102271.47;4920722;29;20070;-64
2021/07/22 08:24:10;;;;;;;2.25;2.15;;;24.80;99.90;;;25.04;54.68;102275.81;4937876;29;20494;-63
2021/07/22 08:26:39;;;;;;;1.58;1.58;;;24.80;99.90;;;25.21;54.92;102277.78;4921100;29;20048;-63
2021/07/22 08:29:08;;;;;;;2.53;2.35;;;24.90;99.90;;;25.25;53.94;102265.88;4938184;29;20083;-63
2021/07/22 08:31:37;;;;;;;1.70;1.70;;;25.00;99.90;;;25.30;53.98;102270.13;4938152;29;20047;-63
2021/07/22 08:34:06;;;;;;;1.98;1.90;;;25.00;99.90;;;25.31;53.52;102271.91;4937803;29;20047;-63
2021/07/22 08:36:35;;;;;;;2.45;2.35;;;25.10;99.90;;;25.44;54.26;102272.28;4920873;29;20051;-63
2021/07/22 08:39:03;;;;;;;1.80;1.80;;;25.20;99.90;;;25.64;53.26;102277.72;4937885;29;20150;-64
2021/07/22 08:41:32;;;;;;;1.70;1.70;;;25.40;99.90;;;25.69;53.15;102271.13;4937675;29;20047;-62
2021/07/22 08:44:04;;;;;;;1.20;1.20;;;25.50;99.90;;;25.64;52.85;102258.75;4937785;29;20043;-63
2021/07/22 08:46:34;;;;;;;1.40;1.40;;;25.50;99.90;;;25.78;52.49;102276.13;4920766;29;20062;-63
2021/07/22 08:49:02;;;;;;;;;;;25.60;99.90;;;25.86;52.38;102276.69;4937384;29;20040;-63
2021/07/22 08:51:31;;;;;;;1.80;1.80;;;25.60;99.90;;;25.78;51.78;102242.75;4937501;29;19927;-63
2021/07/22 08:54:00;;;;;;;2.05;1.95;;;25.70;99.90;;;25.84;51.82;102270.44;4937339;29;20048;-63
2021/07/22 08:56:30;;;;;;;2.00;1.90;;;25.60;99.90;;;25.86;51.38;102271.25;4937187;29;20402;-63
2021/07/22 08:59:01;;;;;;;1.48;1.48;;;25.60;99.90;;;25.99;51.67;102270.69;4937237;29;20106;-65
2021/07/22 09:01:36;;;;;;;1.30;1.30;;;25.70;99.90;;;26.05;51.00;102268.59;4937495;29;20052;-64
2021/07/22 09:04:05;;;;;;;2.03;1.65;;;25.80;99.90;;;26.15;50.38;102272.66;4937387;29;20043;-65
2021/07/22 09:06:37;;;;;;;2.65;2.45;;;25.80;99.90;;;26.03;50.44;102259.66;4937197;29;20075;-65
2021/07/22 09:09:13;;;;;;;1.58;1.58;;;25.90;99.90;;;25.81;49.96;102267.88;4920461;29;20082;-65
2021/07/22 09:11:56;;;;;;;1.70;1.70;;;25.70;99.90;;;26.03;50.59;102267.78;4937389;29;20059;-64
2021/07/22 09:14:26;;;;;;;1.80;1.80;;;25.80;99.90;;;25.71;50.11;102269.25;4937359;29;20091;-63
2021/07/22 09:16:57;;;;;;;;;;;25.50;99.90;;;25.87;50.73;102267.59;4937763;29;20077;-64
2021/07/22 09:19:37;;;;;;;2.15;2.05;;;25.60;99.90;;;25.96;51.07;102265.44;4937100;29;20284;-62
2021/07/22 09:22:10;;;;;;;1.80;1.80;;;25.60;99.90;;;26.03;51.63;102272.31;4937085;29;20056;-63
2021/07/22 09:24:50;;;;;;;1.40;1.40;;;25.70;99.90;;;26.08;52.01;102265.75;4920107;29;20496;-63
2021/07/22 09:27:39;;;;;;;2.03;1.92;;;25.80;99.90;;;26.13;50.90;102270.97;4937151;29;20054;-63
2021/07/22 09:30:10;;;;;;;1.60;1.60;;;25.90;99.90;;;26.35;50.57;102274.44;4936789;29;20058;-64
2021/07/22 09:32:41;;;;;;;2.03;1.92;;;26.00;99.90;;;26.50;49.75;102265.59;4936647;29;20044;-63
2021/07/22 09:35:13;;;;;;;1.60;1.60;;;26.20;99.90;;;26.53;50.04;102257.28;4936973;29;20438;-63
2021/07/22 09:37:43;;;;;;;1.40;1.40;;;26.40;99.90;;;26.58;49.45;102268.78;4936947;29;20074;-63
2021/07/22 09:40:16;;;;;;;;;;;26.30;99.90;;;26.56;49.61;102266.13;4937245;29;20048;-62
2021/07/22 09:42:47;;;;;;;1.55;1.55;;;26.30;99.90;;;26.67;49.00;102274.63;4936768;29;19930;-63
2021/07/22 09:45:18;;;;;;;1.40;1.40;;;26.40;99.90;;;26.89;50.11;102279.94;4936457;29;20485;-63
2021/07/22 09:47:49;;;;;;;1.40;1.40;;;26.60;99.90;;;26.99;48.12;102281.22;4936712;29;20048;-63
2021/07/22 09:50:20;;;;;;;1.60;1.60;;;26.70;99.90;;;26.96;48.12;102283.22;4936410;29;20039;-64
2021/07/22 09:52:50;;;;;;;1.70;1.70;;;26.70;99.90;;;26.95;47.96;102282.34;4936514;29;20050;-64
2021/07/22 09:55:29;;;;;;;1.50;1.50;;;26.70;99.90;;;26.76;47.39;102285.09;4936668;29;20062;-63
2021/07/22 09:58:00;;;;;;;1.70;1.70;;;26.50;99.90;;;26.38;47.18;102220.03;4936626;29;20482;-63
2021/07/22 10:00:31;;;;;;;1.83;1.75;;;26.50;99.90;;;25.88;47.15;102272.06;4936474;29;20055;-64
2021/07/22 10:03:04;;;;;;;1.52;1.52;;;25.90;99.90;;;25.88;50.35;102266.63;4936279;29;20062;-64
2021/07/22 10:05:40;;;;;;;1.60;1.60;;;25.60;99.90;;;26.11;49.29;102279.19;4936204;29;20123;-63
2021/07/22 10:08:10;;;;;;;1.50;1.50;;;25.70;99.90;;;26.23;50.07;102278.59;4936138;29;20058;-63
2021/07/22 10:10:39;;;;;;;1.90;1.83;;;25.90;99.90;;;26.47;50.10;102273.84;4936092;29;20048;-63
2021/07/22 10:13:09;;;;;;;1.73;1.73;;;26.10;99.90;;;26.50;48.85;102276.44;4935983;29;20071;-63
2021/07/22 10:15:37;;;;;;;1.75;1.75;;;26.20;99.90;;;26.41;49.01;102266.88;4936005;29;20438;-63
2021/07/22 10:18:08;;;;;;;1.70;1.60;;;26.20;99.90;;;26.56;49.31;102268.84;4935879;29;20055;-66
2021/07/22 10:20:37;;;;;;;1.42;1.42;;;26.30;99.90;;;26.71;49.36;102270.84;4936090;29;20374;-64
2021/07/22 10:23:06;;;;;;;1.65;1.65;;;26.50;99.90;;;26.76;49.47;102268.81;4936021;29;20044;-64
2021/07/22 10:25:35;;;;;;;1.40;1.40;;;26.50;99.90;;;26.47;49.17;102214.13;4919021;29;20054;-63
2021/07/22 10:28:05;;;;;;;1.55;1.55;;;26.60;99.90;;;26.86;48.43;102279.22;4936035;29;20043;-64
2021/07/22 10:30:34;;;;;;;1.38;1.38;;;26.60;99.90;;;27.07;48.73;102273.59;4935812;29;20043;-65
2021/07/22 10:33:04;;;;;;;1.80;1.70;;;26.70;99.90;;;27.06;48.25;102265.50;4935767;29;20051;-66
2021/07/22 10:35:35;;;;;;;2.00;1.92;;;26.90;99.90;;;26.78;48.27;102198.13;4935982;29;20086;-67
2021/07/22 10:38:10;;;;;;;2.20;2.10;;;27.00;99.90;;;27.10;45.74;102259.81;4935690;29;20051;-67